createdAt,value
2022-10-29T00:03:20.719Z,9.33
2022-10-29T00:08:23.544Z,9.22
2022-10-29T00:13:26.498Z,9.29
2022-10-29T00:18:30.519Z,9.38
2022-10-29T00:23:33.535Z,9.42
2022-10-29T00:28:36.857Z,9.39
2022-10-29T00:33:39.448Z,9.36
2022-10-29T00:38:42.692Z,9.42
2022-10-29T00:43:51.441Z,9.23
2022-10-29T00:48:56.136Z,9.10
2022-10-29T00:54:04.979Z,8.98
2022-10-29T00:59:09.197Z,8.83
2022-10-29T01:04:12.403Z,8.65
2022-10-29T01:09:15.040Z,8.72
2022-10-29T01:14:31.032Z,8.52
2022-10-29T01:20:04.342Z,8.40
2022-10-29T01:25:27.159Z,8.26
2022-10-29T01:30:54.537Z,8.23
2022-10-29T01:35:59.624Z,8.25
2022-10-29T01:41:17.276Z,8.18
2022-10-29T01:46:25.558Z,8.24
2022-10-29T01:51:33.183Z,8.13
2022-10-29T01:56:35.804Z,8.12
2022-10-29T02:01:56.485Z,8.24
2022-10-29T02:07:28.523Z,8.23
2022-10-29T02:12:40.587Z,8.15
2022-10-29T02:18:07.077Z,8.09
2022-10-29T02:23:09.867Z,8.16
2022-10-29T02:28:13.260Z,8.17
2022-10-29T02:33:15.868Z,8.11
2022-10-29T02:38:18.468Z,8.32
2022-10-29T02:43:21.058Z,8.39
2022-10-29T02:48:23.642Z,8.33
2022-10-29T02:53:26.179Z,8.40
2022-10-29T02:58:28.880Z,8.38
2022-10-29T03:03:31.497Z,8.56
2022-10-29T03:08:34.031Z,8.57
2022-10-29T03:18:44.095Z,8.58
2022-10-29T03:23:47.259Z,8.56
2022-10-29T03:28:49.888Z,8.59
2022-10-29T03:33:52.550Z,8.79
2022-10-29T03:38:55.180Z,8.85
2022-10-29T03:43:57.873Z,8.69
2022-10-29T03:49:00.556Z,8.89
2022-10-29T03:54:03.151Z,8.78
2022-10-29T03:59:05.872Z,8.86
2022-10-29T04:04:10.028Z,8.88
2022-10-29T04:09:12.583Z,8.84
2022-10-29T04:14:15.169Z,9.02
2022-10-29T04:19:17.879Z,9.03
2022-10-29T04:29:43.357Z,9.14
2022-10-29T04:34:45.961Z,9.09
2022-10-29T04:39:48.559Z,9.04
2022-10-29T04:44:51.134Z,8.96
2022-10-29T04:49:53.811Z,9.00
2022-10-29T04:54:56.405Z,8.98
2022-10-29T04:59:58.978Z,8.91
2022-10-29T05:05:01.763Z,9.00
2022-10-29T05:10:06.102Z,8.91
2022-10-29T05:15:08.908Z,9.08
2022-10-29T05:20:11.771Z,9.09
2022-10-29T05:25:15.104Z,9.12
2022-10-29T05:30:17.851Z,9.17
2022-10-29T05:35:20.459Z,9.07
2022-10-29T05:40:24.264Z,9.14
2022-10-29T05:45:26.887Z,9.21
2022-10-29T05:50:30.485Z,9.32
2022-10-29T05:55:34.765Z,9.36
2022-10-29T06:00:39.900Z,9.44
2022-10-29T06:05:42.734Z,9.36
2022-10-29T06:10:45.717Z,9.32
2022-10-29T06:15:51.287Z,9.56
2022-10-29T06:20:55.078Z,9.53
2022-10-29T06:26:02.066Z,9.43
2022-10-29T06:31:05.002Z,9.48
2022-10-29T06:36:08.218Z,9.35
2022-10-29T06:41:10.947Z,9.21
2022-10-29T06:46:13.602Z,9.13
2022-10-29T06:51:16.753Z,9.29
2022-10-29T06:56:19.896Z,9.54
2022-10-29T07:01:24.590Z,9.57
2022-10-29T07:06:33.671Z,9.62
2022-10-29T07:11:36.337Z,9.67
2022-10-29T07:16:38.884Z,9.71
2022-10-29T07:21:42.037Z,9.78
2022-10-29T07:26:44.786Z,9.52
2022-10-29T07:31:47.475Z,9.88
2022-10-29T07:36:50.345Z,9.89
2022-10-29T07:41:55.317Z,10.06
2022-10-29T07:47:03.186Z,10.02
2022-10-29T07:52:05.832Z,10.00
2022-10-29T07:57:08.769Z,9.97
2022-10-29T08:02:11.883Z,9.94
2022-10-29T08:07:14.538Z,9.84
2022-10-29T08:12:17.294Z,9.93
2022-10-29T08:17:19.908Z,10.05
2022-10-29T08:22:22.832Z,9.96
2022-10-29T08:27:25.803Z,9.92
2022-10-29T08:32:28.588Z,9.66
2022-10-29T08:37:31.784Z,9.48
2022-10-29T08:42:40.591Z,9.57
2022-10-29T08:48:06.293Z,9.69
2022-10-29T08:53:23.692Z,9.89
2022-10-29T08:58:33.492Z,10.07
2022-10-29T09:03:36.155Z,10.27
2022-10-29T09:08:45.097Z,10.05
2022-10-29T09:14:00.617Z,9.90
2022-10-29T09:19:08.341Z,9.72
2022-10-29T09:24:35.294Z,9.70
2022-10-29T09:29:58.327Z,9.77
2022-10-29T09:35:06.060Z,10.07
2022-10-29T09:40:33.019Z,10.12
2022-10-29T09:45:50.937Z,9.69
2022-10-29T09:51:22.624Z,9.85
2022-10-29T09:56:25.541Z,9.68
2022-10-29T10:01:28.837Z,9.54
2022-10-29T10:07:11.098Z,9.45
2022-10-29T10:12:13.742Z,9.53
2022-10-29T10:17:16.675Z,9.38
2022-10-29T10:22:22.654Z,9.56
2022-10-29T10:27:34.396Z,9.80
2022-10-29T10:32:37.115Z,9.66
2022-10-29T10:37:39.803Z,9.62
2022-10-29T10:42:47.196Z,9.70
2022-10-29T10:47:56.477Z,9.57
2022-10-29T10:53:03.089Z,9.69
2022-10-29T10:58:10.066Z,9.71
2022-10-29T11:03:18.134Z,9.71
2022-10-29T11:08:45.614Z,9.27
2022-10-29T11:13:50.333Z,9.42
2022-10-29T11:19:05.802Z,9.22
2022-10-29T11:24:27.847Z,9.28
2022-10-29T11:29:47.473Z,9.40
2022-10-29T11:35:46.959Z,9.57
2022-10-29T11:40:54.977Z,9.55
2022-10-29T11:46:21.602Z,9.59
2022-10-29T11:51:41.311Z,9.54
2022-10-29T11:56:43.882Z,9.44
2022-10-29T12:01:58.466Z,9.39
2022-10-29T12:07:31.884Z,9.37
2022-10-29T12:12:56.397Z,9.32
2022-10-29T12:18:37.039Z,9.40
2022-10-29T12:24:01.754Z,9.18
2022-10-29T12:29:32.582Z,9.22
2022-10-29T12:34:38.110Z,9.18
2022-10-29T12:39:55.818Z,8.92
2022-10-29T12:45:06.823Z,9.18
2022-10-29T12:50:26.650Z,9.16
2022-10-29T12:55:30.860Z,9.08
2022-10-29T13:00:45.897Z,9.22
2022-10-29T13:05:48.571Z,9.29
2022-10-29T13:10:53.223Z,8.95
2022-10-29T13:16:02.700Z,9.09
2022-10-29T13:21:05.776Z,9.14
2022-10-29T13:26:09.014Z,9.29
2022-10-29T13:31:14.352Z,9.18
2022-10-29T13:36:16.890Z,9.21
2022-10-29T13:41:42.331Z,9.22
2022-10-29T13:46:56.705Z,9.19
2022-10-29T13:52:14.568Z,8.97
2022-10-29T13:57:25.350Z,9.13
2022-10-29T14:02:37.293Z,8.94
2022-10-29T14:07:48.608Z,8.85
2022-10-29T14:12:58.007Z,8.83
2022-10-29T14:18:23.248Z,8.84
2022-10-29T14:23:26.899Z,9.04
2022-10-29T14:28:31.643Z,9.19
2022-10-29T14:33:36.796Z,9.29
2022-10-29T14:38:47.702Z,9.08
2022-10-29T14:43:58.725Z,9.20
2022-10-29T14:49:04.378Z,9.22
2022-10-29T14:54:15.615Z,9.30
2022-10-29T14:59:24.931Z,9.39
2022-10-29T15:04:32.610Z,9.14
2022-10-29T15:09:35.225Z,9.13
2022-10-29T15:14:47.475Z,9.02
2022-10-29T15:20:03.324Z,8.85
2022-10-29T15:25:19.305Z,8.89
2022-10-29T15:30:29.173Z,9.02
2022-10-29T15:35:32.067Z,9.10
2022-10-29T15:40:34.618Z,9.12
2022-10-29T15:45:37.153Z,9.13
2022-10-29T15:50:44.927Z,9.17
2022-10-29T15:55:53.000Z,9.26
2022-10-29T16:00:55.743Z,9.26
2022-10-29T16:06:03.990Z,9.10
2022-10-29T16:11:11.203Z,9.28
2022-10-29T16:16:22.520Z,9.27
2022-10-29T16:21:26.360Z,9.18
2022-10-29T16:26:29.423Z,9.04
2022-10-29T16:31:32.091Z,9.12
2022-10-29T16:36:34.801Z,9.17
2022-10-29T16:41:37.409Z,9.20
2022-10-29T16:46:40.027Z,9.07
2022-10-29T16:51:42.907Z,9.06
2022-10-29T16:56:46.539Z,9.14
2022-10-29T17:01:49.204Z,9.09
2022-10-29T17:06:51.822Z,9.07
2022-10-29T17:11:54.383Z,9.15
2022-10-29T17:16:57.407Z,9.40
2022-10-29T17:22:00.217Z,9.15
2022-10-29T17:27:02.927Z,9.25
2022-10-29T17:32:07.568Z,9.33
2022-10-29T17:37:11.423Z,9.25
2022-10-29T17:42:14.097Z,9.33
2022-10-29T17:47:16.656Z,9.32
2022-10-29T17:52:19.680Z,9.38
2022-10-29T17:57:22.276Z,9.34
2022-10-29T18:02:25.032Z,9.30
2022-10-29T18:07:27.798Z,9.27
2022-10-29T18:12:30.541Z,9.37
2022-10-29T18:17:33.551Z,9.45
2022-10-29T18:22:36.656Z,9.18
2022-10-29T18:27:40.835Z,9.39
2022-10-29T18:32:43.458Z,9.44
2022-10-29T18:37:47.068Z,9.54
2022-10-29T18:42:49.811Z,9.39
2022-10-29T18:47:52.397Z,9.49
2022-10-29T18:52:55.380Z,9.41
2022-10-29T18:57:58.210Z,9.38
2022-10-29T19:03:00.914Z,9.19
2022-10-29T19:08:05.784Z,9.21
2022-10-29T19:13:08.906Z,9.19
2022-10-29T19:18:12.115Z,9.25
2022-10-29T19:23:14.843Z,9.15
2022-10-29T19:28:17.423Z,9.19
2022-10-29T19:33:20.032Z,9.05
2022-10-29T19:38:22.742Z,9.39
2022-10-29T19:43:28.675Z,9.44
2022-10-29T19:48:31.212Z,9.47
2022-10-29T19:53:33.990Z,9.50
2022-10-29T19:58:36.566Z,9.58
2022-10-29T20:03:39.202Z,9.64
2022-10-29T20:08:42.186Z,9.45
2022-10-29T20:13:45.433Z,9.67
2022-10-29T20:18:48.995Z,9.66
2022-10-29T20:23:51.973Z,9.77
2022-10-29T20:28:57.147Z,9.47
2022-10-29T20:34:01.185Z,9.59
2022-10-29T20:39:04.266Z,9.70
2022-10-29T20:44:06.872Z,9.64
2022-10-29T20:49:10.934Z,9.76
2022-10-29T20:54:13.593Z,9.83
2022-10-29T20:59:16.800Z,9.81
2022-10-29T21:04:19.641Z,9.68
2022-10-29T21:09:22.920Z,9.67
2022-10-29T21:14:27.623Z,9.73
2022-10-29T21:19:30.755Z,9.81
2022-10-29T21:24:33.447Z,9.65
2022-10-29T21:29:36.237Z,9.74
2022-10-29T21:34:38.859Z,9.76
2022-10-29T21:39:41.612Z,9.50
2022-10-29T21:44:44.309Z,9.67
2022-10-29T21:49:51.833Z,9.62
2022-10-29T21:54:54.809Z,9.40
2022-10-29T21:59:57.551Z,9.38
2022-10-29T22:05:00.191Z,9.39
2022-10-29T22:10:03.124Z,9.45
2022-10-29T22:15:06.519Z,9.48
2022-10-29T22:20:09.770Z,9.43
2022-10-29T22:25:12.351Z,9.67
2022-10-29T22:30:15.063Z,9.76
2022-10-29T22:35:17.636Z,9.83
2022-10-29T22:40:20.225Z,9.81
2022-10-29T22:45:22.762Z,9.80
2022-10-29T22:50:25.427Z,9.85
2022-10-29T22:55:27.947Z,9.83
2022-10-29T23:00:30.656Z,9.89
2022-10-29T23:05:33.217Z,10.00
2022-10-29T23:10:36.152Z,10.08
2022-10-29T23:15:38.727Z,10.13
2022-10-29T23:20:41.540Z,10.16
2022-10-29T23:25:44.721Z,10.21
2022-10-29T23:30:53.344Z,10.25
2022-10-29T23:35:55.991Z,10.17
2022-10-29T23:40:58.869Z,10.19
2022-10-29T23:46:01.957Z,10.29
2022-10-29T23:51:05.043Z,10.38
2022-10-29T23:56:08.274Z,10.34
